Time;durP1;ratioP1;P1;durP2;ratioP2;P2;SDS_P1;SDS_P2;PMS_P1;PMS_P2;Temp;Humidity;BMP_temperature;BMP_pressure;BME280_temperature;BME280_humidity;BME280_pressure;Samples;Min_cycle;Max_cycle;Signal;HPM_P1;HPM_P2
2023/10/07 00:01:22;;;;;;;9.65;4.07;;;20.00;71.30;;;;;;5028652;28;20368;-51
2023/10/07 00:03:50;;;;;;;8.60;3.92;;;20.00;71.00;;;;;;5029607;28;20097;-54
2023/10/07 00:06:17;;;;;;;10.30;4.05;;;20.00;71.00;;;;;;5028779;28;20117;-56
2023/10/07 00:08:43;;;;;;;10.25;3.80;;;20.00;71.20;;;;;;5029608;28;20021;-54
2023/10/07 00:11:11;;;;;;;9.40;4.00;;;20.00;71.20;;;;;;5029553;28;20401;-56
2023/10/07 00:13:41;;;;;;;7.65;4.18;;;20.00;71.30;;;;;;5028736;28;20020;-55
2023/10/07 00:16:10;;;;;;;8.80;3.88;;;20.00;71.20;;;;;;5028082;28;20044;-53
2023/10/07 00:18:36;;;;;;;8.65;3.83;;;20.00;71.40;;;;;;5029773;28;20493;-54
2023/10/07 00:21:04;;;;;;;12.57;3.67;;;20.00;71.30;;;;;;5028827;28;20075;-53
2023/10/07 00:23:34;;;;;;;10.70;4.40;;;20.00;71.30;;;;;;5032272;28;20018;-55
2023/10/07 00:26:01;;;;;;;8.65;4.03;;;20.00;71.20;;;;;;5032941;28;20455;-54
2023/10/07 00:28:32;;;;;;;8.75;3.85;;;20.00;71.30;;;;;;5033535;28;20026;-54
2023/10/07 00:31:03;;;;;;;8.73;4.03;;;20.00;71.40;;;;;;5030476;28;20108;-50
2023/10/07 00:33:45;;;;;;;9.98;4.18;;;20.00;71.30;;;;;;5031406;28;20022;-53
2023/10/07 00:36:20;;;;;;;10.15;3.80;;;20.00;71.20;;;;;;5032752;28;20438;-51
2023/10/07 00:38:46;;;;;;;9.70;4.10;;;20.00;71.20;;;;;;5030996;28;20485;-54
2023/10/07 00:41:18;;;;;;;8.25;3.92;;;20.00;71.30;;;;;;5026959;28;20092;-56
2023/10/07 00:43:44;;;;;;;8.60;3.97;;;20.00;71.30;;;;;;5030720;28;20211;-52
2023/10/07 00:48:47;;;;;;;10.32;3.75;;;20.00;71.20;;;;;;5031764;28;20536;-48
2023/10/07 00:51:17;;;;;;;10.40;4.18;;;20.00;71.40;;;;;;5064244;28;20029;-53
2023/10/07 00:53:51;;;;;;;7.97;3.85;;;20.00;71.20;;;;;;5030914;28;20025;-52
2023/10/07 00:56:17;;;;;;;10.32;4.28;;;20.00;71.20;;;;;;5033007;28;20048;-51
2023/10/07 00:58:46;;;;;;;8.30;3.80;;;20.00;71.20;;;;;;5035503;28;20484;-54
2023/10/07 01:01:13;;;;;;;7.85;3.40;;;20.10;71.60;;;;;;5032811;28;20109;-58
2023/10/07 01:03:48;;;;;;;9.88;3.67;;;20.10;70.70;;;;;;5032547;28;20446;-52
2023/10/07 01:06:27;;;;;;;14.80;4.50;;;20.10;71.00;;;;;;5032720;28;20029;-52
2023/10/07 01:09:08;;;;;;;10.63;4.18;;;20.00;70.70;;;;;;5032094;28;20116;-56
2023/10/07 01:11:39;;;;;;;26.67;4.00;;;20.00;71.10;;;;;;5031240;28;20070;-55
2023/10/07 01:14:11;;;;;;;10.85;3.95;;;20.00;71.30;;;;;;5030328;28;20033;-58
2023/10/07 01:16:41;;;;;;;9.13;3.53;;;20.00;71.50;;;;;;5031964;28;20036;-59
2023/10/07 01:24:33;;;;;;;14.35;3.90;;;20.00;71.30;;;;;;5030174;28;20029;-51
2023/10/07 01:27:06;;;;;;;12.52;4.28;;;20.00;71.40;;;;;;5032198;28;20044;-55
2023/10/07 01:29:34;;;;;;;11.02;3.97;;;20.00;71.40;;;;;;5032288;28;20021;-51
2023/10/07 01:32:04;;;;;;;12.95;4.18;;;20.00;71.30;;;;;;5030274;28;20020;-54
2023/10/07 01:34:34;;;;;;;15.00;4.00;;;20.00;71.20;;;;;;5030194;28;20476;-55
2023/10/07 01:37:05;;;;;;;11.40;3.72;;;20.00;71.20;;;;;;5030382;28;20409;-54
2023/10/07 01:39:49;;;;;;;14.25;3.97;;;20.00;71.20;;;;;;5029978;28;20033;-57
2023/10/07 01:42:26;;;;;;;8.77;3.65;;;20.00;71.20;;;;;;5029614;28;20083;-49
2023/10/07 01:45:08;;;;;;;13.32;3.63;;;19.90;71.00;;;;;;5031289;28;20542;-56
2023/10/07 01:47:35;;;;;;;10.68;3.80;;;20.00;71.10;;;;;;5024197;28;20021;-55
2023/10/07 01:50:11;;;;;;;9.45;3.35;;;19.90;71.10;;;;;;5030379;28;20030;-57
2023/10/07 01:52:38;;;;;;;11.07;3.47;;;20.00;71.20;;;;;;5029650;28;20112;-56
2023/10/07 01:55:08;;;;;;;7.32;3.10;;;20.00;71.20;;;;;;5029980;28;20028;-55
2023/10/07 01:57:34;;;;;;;10.93;3.90;;;20.00;71.20;;;;;;5030587;28;20029;-57
2023/10/07 02:00:05;;;;;;;10.10;3.50;;;19.90;71.10;;;;;;5030468;28;20033;-54
2023/10/07 02:02:49;;;;;;;6.57;3.08;;;20.00;71.20;;;;;;5028899;28;20070;-55
2023/10/07 02:05:16;;;;;;;11.88;3.60;;;20.00;71.20;;;;;;5037514;28;20035;-55
2023/10/07 02:07:46;;;;;;;6.18;3.22;;;20.00;71.20;;;;;;5029571;28;20026;-54
2023/10/07 02:10:13;;;;;;;10.98;3.78;;;20.00;71.30;;;;;;5045996;28;20101;-55
2023/10/07 02:12:45;;;;;;;9.30;3.92;;;20.00;71.20;;;;;;5029882;28;20099;-56
2023/10/07 02:15:19;;;;;;;7.97;3.25;;;20.00;71.10;;;;;;5062740;28;20024;-57
2023/10/07 02:17:47;;;;;;;12.15;3.83;;;19.90;71.10;;;;;;5030908;28;20505;-53
2023/10/07 02:20:25;;;;;;;14.43;3.58;;;20.00;71.20;;;;;;5028548;28;20083;-56
2023/10/07 02:22:52;;;;;;;5.97;3.20;;;19.90;71.10;;;;;;5029068;28;20497;-57
2023/10/07 02:25:21;;;;;;;8.00;3.33;;;20.00;71.20;;;;;;5030059;28;20409;-57
2023/10/07 02:27:48;;;;;;;7.77;3.63;;;19.90;71.10;;;;;;5030598;28;20025;-55
2023/10/07 02:30:19;;;;;;;10.75;3.58;;;19.90;71.20;;;;;;5062422;28;20029;-53
2023/10/07 02:32:46;;;;;;;6.85;3.38;;;19.90;71.20;;;;;;5030501;28;20481;-58
2023/10/07 02:35:19;;;;;;;9.43;3.25;;;20.00;71.20;;;;;;5029286;28;20077;-55
2023/10/07 02:37:49;;;;;;;12.93;3.50;;;20.00;71.20;;;;;;5030454;28;20033;-53
2023/10/07 02:40:22;;;;;;;12.13;3.13;;;20.00;71.20;;;;;;5028292;28;20040;-52
2023/10/07 02:42:50;;;;;;;7.15;3.10;;;20.00;71.20;;;;;;5030129;28;20025;-55
2023/10/07 02:47:47;;;;;;;8.25;3.55;;;19.90;71.20;;;;;;5030016;28;20029;-54
2023/10/07 02:50:13;;;;;;;9.55;3.63;;;19.90;71.20;;;;;;5028970;28;20100;-55
2023/10/07 02:52:39;;;;;;;7.70;3.33;;;20.00;71.30;;;;;;5030541;28;20036;-51
2023/10/07 02:57:46;;;;;;;10.90;3.75;;;19.90;71.20;;;;;;5030846;28;20057;-57
2023/10/07 03:00:29;;;;;;;11.48;3.45;;;19.90;71.30;;;;;;5029309;28;20481;-53
2023/10/07 03:03:10;;;;;;;8.95;3.53;;;19.90;71.20;;;;;;5030371;28;20030;-52
2023/10/07 03:05:43;;;;;;;8.50;3.58;;;19.90;71.10;;;;;;5027606;28;20029;-54
2023/10/07 03:08:19;;;;;;;8.15;3.40;;;20.00;71.20;;;;;;5028963;28;20075;-50
2023/10/07 03:11:09;;;;;;;9.63;3.65;;;19.90;71.20;;;;;;5030296;28;20454;-54
2023/10/07 03:13:38;;;;;;;7.93;3.38;;;19.90;71.20;;;;;;5022910;28;20025;-51
2023/10/07 03:18:56;;;;;;;15.52;3.70;;;19.90;71.20;;;;;;5012909;28;20037;-57
2023/10/07 03:21:35;;;;;;;8.73;3.47;;;19.90;71.30;;;;;;5012262;28;20026;-55
2023/10/07 03:24:01;;;;;;;11.32;3.67;;;19.90;71.30;;;;;;5029722;28;20022;-56
2023/10/07 03:26:32;;;;;;;9.75;3.35;;;19.90;71.30;;;;;;5029958;28;20035;-54
2023/10/07 03:29:03;;;;;;;10.95;3.97;;;19.90;71.90;;;;;;5030466;28;20030;-55
2023/10/07 03:31:52;;;;;;;5.65;3.00;;;19.90;71.30;;;;;;5029939;28;20452;-49
2023/10/07 03:34:15;;;;;;;10.70;3.83;;;19.90;71.40;;;;;;5027906;28;20065;-52
2023/10/07 03:41:52;;;;;;;8.88;3.25;;;19.90;71.50;;;;;;5029848;28;20032;-55
2023/10/07 03:44:19;;;;;;;8.23;3.22;;;19.90;71.50;;;;;;5030229;28;20447;-56
2023/10/07 03:46:48;;;;;;;7.80;3.35;;;19.90;72.00;;;;;;5029573;28;20099;-55
2023/10/07 03:49:21;;;;;;;13.02;3.60;;;19.90;71.50;;;;;;5028723;28;20025;-54
2023/10/07 03:52:03;;;;;;;12.63;3.78;;;19.90;71.50;;;;;;5028637;28;20396;-50
2023/10/07 03:54:32;;;;;;;8.02;3.53;;;19.90;71.60;;;;;;5022026;28;20087;-54
2023/10/07 03:57:00;;;;;;;9.23;3.28;;;19.90;71.50;;;;;;5027978;28;20087;-53
2023/10/07 03:59:32;;;;;;;10.10;3.70;;;19.90;71.50;;;;;;5030248;28;20358;-53
2023/10/07 04:01:58;;;;;;;9.23;3.33;;;19.90;71.50;;;;;;5033298;28;20029;-59
2023/10/07 04:04:24;;;;;;;8.90;3.30;;;19.90;71.60;;;;;;5031752;28;20563;-51
2023/10/07 04:06:51;;;;;;;13.10;3.92;;;19.90;71.70;;;;;;5033735;28;20021;-52
2023/10/07 04:09:17;;;;;;;7.75;3.38;;;19.90;71.80;;;;;;5033690;28;20032;-55
2023/10/07 04:11:50;;;;;;;10.45;3.47;;;19.90;71.70;;;;;;5033169;28;20092;-52
2023/10/07 04:14:27;;;;;;;8.73;3.40;;;19.90;71.60;;;;;;5032334;28;20030;-55
2023/10/07 04:16:54;;;;;;;8.63;3.15;;;19.90;71.60;;;;;;5031799;28;20025;-50
2023/10/07 04:21:51;;;;;;;6.55;3.40;;;19.90;71.50;;;;;;5032383;28;20485;-53
2023/10/07 04:24:20;;;;;;;7.15;3.10;;;19.90;71.50;;;;;;5032299;28;20409;-51
2023/10/07 04:29:42;;;;;;;6.97;3.13;;;19.90;71.40;;;;;;5024045;28;20448;-53
2023/10/07 04:32:19;;;;;;;8.45;3.30;;;19.90;71.40;;;;;;5031937;28;20021;-51
2023/10/07 04:35:06;;;;;;;7.63;3.42;;;19.90;71.40;;;;;;5031741;28;20051;-54
2023/10/07 04:37:51;;;;;;;11.63;3.38;;;19.90;71.40;;;;;;5033554;28;20492;-51
2023/10/07 04:45:49;;;;;;;7.18;3.25;;;19.90;71.40;;;;;;4960287;28;20118;-56
2023/10/07 04:48:26;;;;;;;9.05;3.20;;;19.90;71.40;;;;;;5029627;28;20059;-56
2023/10/07 04:51:12;;;;;;;12.38;3.80;;;19.90;71.40;;;;;;5027241;28;20025;-59
2023/10/07 04:53:39;;;;;;;8.50;3.13;;;19.90;71.50;;;;;;5031655;28;20034;-58
2023/10/07 04:56:20;;;;;;;9.45;3.70;;;19.90;71.40;;;;;;5014509;28;20021;-54
2023/10/07 04:58:47;;;;;;;7.75;3.80;;;19.90;71.30;;;;;;5031433;28;20390;-54
2023/10/07 05:01:30;;;;;;;8.45;3.30;;;19.90;71.40;;;;;;5032233;28;20026;-52
2023/10/07 05:03:58;;;;;;;10.95;3.70;;;19.90;71.40;;;;;;5030235;28;20033;-59
2023/10/07 05:06:25;;;;;;;8.80;3.70;;;19.90;71.40;;;;;;5029975;28;20032;-54
2023/10/07 05:08:51;;;;;;;9.30;3.55;;;19.90;71.40;;;;;;5033043;28;20603;-57
2023/10/07 05:11:20;;;;;;;11.98;3.90;;;19.90;71.40;;;;;;5032557;28;20113;-58
2023/10/07 05:13:47;;;;;;;9.35;3.65;;;19.90;71.40;;;;;;5032842;28;20017;-60
2023/10/07 05:16:14;;;;;;;10.13;3.63;;;19.90;71.40;;;;;;5032016;28;20033;-55
2023/10/07 05:18:41;;;;;;;7.75;3.42;;;19.90;71.50;;;;;;5032055;28;20021;-55
2023/10/07 05:21:07;;;;;;;13.57;3.67;;;19.90;71.50;;;;;;5031467;28;20025;-55
2023/10/07 05:23:34;;;;;;;11.13;3.42;;;19.90;71.60;;;;;;5031138;28;20036;-55
2023/10/07 05:26:03;;;;;;;7.68;3.42;;;19.90;71.50;;;;;;5032003;28;20056;-54
2023/10/07 05:28:32;;;;;;;7.18;3.42;;;19.90;71.60;;;;;;5031926;28;20415;-56
2023/10/07 05:31:00;;;;;;;9.68;3.95;;;19.90;71.60;;;;;;5031783;28;20336;-55
2023/10/07 05:33:28;;;;;;;8.68;3.38;;;19.90;71.70;;;;;;5007763;28;20036;-57
2023/10/07 05:36:14;;;;;;;9.18;3.40;;;19.90;71.70;;;;;;5031121;28;20087;-55
2023/10/07 05:38:45;;;;;;;10.38;4.70;;;19.90;71.70;;;;;;5026545;28;20029;-56
2023/10/07 05:41:17;;;;;;;11.85;5.10;;;19.90;71.80;;;;;;5030385;28;20033;-50
2023/10/07 05:43:48;;;;;;;9.73;4.07;;;19.90;71.90;;;;;;5032159;28;20029;-50
2023/10/07 05:46:19;;;;;;;9.20;3.75;;;19.90;71.80;;;;;;5031666;28;20038;-49
2023/10/07 05:48:46;;;;;;;9.25;3.72;;;19.90;71.90;;;;;;5030622;28;20029;-54
2023/10/07 05:51:12;;;;;;;9.75;3.90;;;19.90;71.90;;;;;;5031259;28;20029;-49
2023/10/07 05:53:39;;;;;;;11.23;3.95;;;19.90;71.90;;;;;;5013795;28;20029;-51
2023/10/07 05:56:06;;;;;;;10.95;3.97;;;19.90;71.80;;;;;;5030394;28;20025;-51
2023/10/07 05:58:36;;;;;;;8.13;3.67;;;19.90;72.00;;;;;;5032378;28;20068;-55
2023/10/07 06:01:06;;;;;;;10.65;4.05;;;19.80;71.90;;;;;;5030810;28;20021;-55
2023/10/07 06:03:32;;;;;;;10.60;3.67;;;19.80;71.90;;;;;;5030259;28;20036;-56
2023/10/07 06:05:58;;;;;;;9.48;3.85;;;19.90;71.90;;;;;;5030313;28;20064;-55
2023/10/07 06:08:26;;;;;;;11.93;4.00;;;19.90;72.00;;;;;;5005822;28;20025;-57
2023/10/07 06:10:52;;;;;;;10.32;3.88;;;19.90;72.00;;;;;;5031055;28;20048;-54
2023/10/07 06:13:18;;;;;;;8.93;3.75;;;19.90;72.00;;;;;;5031502;28;20030;-57
2023/10/07 06:15:45;;;;;;;13.82;4.30;;;19.90;72.00;;;;;;5030060;28;20075;-57
2023/10/07 06:18:11;;;;;;;10.95;4.07;;;19.90;71.90;;;;;;5030525;28;20029;-55
2023/10/07 06:20:37;;;;;;;7.68;3.95;;;19.90;71.90;;;;;;5030745;28;20026;-57
2023/10/07 06:23:16;;;;;;;10.00;4.03;;;19.90;71.90;;;;;;5029859;28;20457;-54
2023/10/07 06:25:49;;;;;;;10.80;4.03;;;19.80;72.00;;;;;;5028173;28;20029;-51
2023/10/07 06:31:27;;;;;;;9.05;4.40;;;19.80;72.10;;;;;;5009845;28;20032;-57
2023/10/07 06:34:00;;;;;;;7.88;3.90;;;19.80;72.00;;;;;;5028257;28;20393;-58
2023/10/07 06:36:27;;;;;;;9.15;3.88;;;19.90;72.10;;;;;;5022404;28;20021;-57
2023/10/07 06:38:58;;;;;;;10.52;4.53;;;19.90;72.10;;;;;;5030202;28;20097;-57
2023/10/07 06:41:27;;;;;;;9.77;4.10;;;19.90;72.20;;;;;;5031134;28;20029;-59
2023/10/07 06:43:54;;;;;;;12.45;4.80;;;19.80;72.20;;;;;;4994938;28;20025;-59
2023/10/07 06:46:23;;;;;;;9.77;4.03;;;19.80;72.20;;;;;;5031174;28;20028;-53
2023/10/07 06:48:49;;;;;;;10.00;4.35;;;19.90;72.30;;;;;;5031016;28;20025;-56
2023/10/07 06:51:16;;;;;;;8.00;3.83;;;19.80;72.40;;;;;;5030998;28;20021;-60
2023/10/07 06:53:43;;;;;;;11.20;4.47;;;19.80;72.40;;;;;;5030987;28;20067;-55
2023/10/07 06:56:21;;;;;;;15.82;4.53;;;19.90;72.40;;;;;;5028570;28;20029;-57
2023/10/07 06:58:54;;;;;;;11.23;4.20;;;19.90;72.50;;;;;;5025791;28;20424;-57
2023/10/07 07:04:13;;;;;;;8.60;4.07;;;19.90;72.60;;;;;;5030573;28;20021;-56
2023/10/07 07:06:44;;;;;;;7.13;3.60;;;19.90;72.50;;;;;;4996984;28;20025;-59
2023/10/07 07:11:59;;;;;;;8.75;3.80;;;19.80;72.70;;;;;;5029942;28;20026;-57
2023/10/07 07:14:28;;;;;;;10.38;3.80;;;19.80;72.60;;;;;;5029017;28;20021;-57
2023/10/07 07:16:56;;;;;;;14.18;4.35;;;19.80;72.60;;;;;;5030689;28;20036;-61
2023/10/07 07:19:23;;;;;;;14.82;4.05;;;19.90;72.80;;;;;;5028027;28;20493;-60
2023/10/07 07:21:49;;;;;;;12.00;4.35;;;19.90;73.10;;;;;;5030081;28;20029;-59
2023/10/07 07:24:24;;;;;;;14.15;3.97;;;19.90;73.00;;;;;;5030733;28;20138;-60
2023/10/07 07:26:52;;;;;;;12.35;4.45;;;19.90;73.40;;;;;;5031041;28;20033;-60
2023/10/07 07:29:25;;;;;;;11.85;3.85;;;19.90;73.40;;;;;;5030716;28;20404;-60
2023/10/07 07:31:51;;;;;;;19.38;4.63;;;19.90;73.50;;;;;;5030949;28;20397;-59
2023/10/07 07:34:26;;;;;;;14.20;4.30;;;19.90;73.50;;;;;;5031432;28;20025;-55
2023/10/07 07:37:02;;;;;;;17.85;4.35;;;20.00;73.50;;;;;;5035051;28;20033;-58
2023/10/07 07:39:30;;;;;;;15.25;4.22;;;19.90;73.50;;;;;;5032980;28;20144;-58
2023/10/07 07:42:15;;;;;;;16.40;4.25;;;20.00;73.70;;;;;;5034469;28;20087;-59
2023/10/07 07:44:57;;;;;;;14.00;4.20;;;20.00;73.40;;;;;;5013915;28;20021;-58
2023/10/07 07:47:27;;;;;;;15.63;4.70;;;19.90;73.80;;;;;;5034329;28;20044;-56
2023/10/07 07:49:56;;;;;;;12.98;4.18;;;20.00;73.80;;;;;;5034543;28;20257;-57
2023/10/07 07:52:22;;;;;;;17.95;4.40;;;19.90;73.30;;;;;;5034226;28;20029;-58
2023/10/07 07:54:48;;;;;;;33.50;5.60;;;20.00;73.70;;;;;;5032600;28;20109;-61
2023/10/07 07:57:16;;;;;;;33.53;4.85;;;20.00;74.10;;;;;;5034364;28;20117;-58
2023/10/07 07:59:43;;;;;;;16.75;3.92;;;20.10;73.60;;;;;;5041265;28;20478;-55
2023/10/07 08:02:16;;;;;;;15.40;4.22;;;20.00;73.40;;;;;;5043737;28;20455;-57
2023/10/07 08:04:48;;;;;;;15.13;4.20;;;20.10;73.80;;;;;;5038328;28;20028;-58
2023/10/07 08:09:52;;;;;;;17.33;4.70;;;20.10;73.80;;;;;;5036618;28;20101;-56
2023/10/07 08:12:23;;;;;;;13.80;3.47;;;20.10;73.20;;;;;;5032587;28;20060;-55
2023/10/07 08:14:52;;;;;;;7.45;3.65;;;20.10;73.10;;;;;;5041986;28;20440;-56
2023/10/07 08:17:25;;;;;;;11.82;4.05;;;20.10;73.10;;;;;;5045247;28;20086;-56
2023/10/07 08:19:52;;;;;;;13.48;4.32;;;20.10;73.30;;;;;;5035657;28;20040;-56
2023/10/07 08:22:21;;;;;;;10.63;3.90;;;20.10;73.30;;;;;;5040066;28;20037;-55
2023/10/07 08:24:50;;;;;;;13.63;4.18;;;20.20;73.30;;;;;;5047020;28;20083;-59
2023/10/07 08:30:08;;;;;;;9.57;3.80;;;20.10;73.10;;;;;;5044564;28;20751;-58
2023/10/07 08:32:46;;;;;;;14.35;3.80;;;20.10;73.20;;;;;;5044962;28;20392;-56
2023/10/07 08:35:16;;;;;;;15.15;4.05;;;20.20;73.30;;;;;;5044535;28;20059;-56
2023/10/07 08:37:47;;;;;;;19.10;3.70;;;20.20;72.90;;;;;;5041362;28;20056;-59
2023/10/07 08:40:27;;;;;;;14.23;3.60;;;20.30;72.80;;;;;;5044726;28;20401;-52
2023/10/07 08:43:04;;;;;;;14.50;4.22;;;20.30;72.70;;;;;;5042313;28;20025;-59
2023/10/07 08:45:32;;;;;;;11.52;4.28;;;20.30;73.30;;;;;;5040789;28;20502;-59
2023/10/07 08:48:16;;;;;;;14.52;4.30;;;20.30;73.40;;;;;;5046941;28;20037;-54
2023/10/07 08:50:55;;;;;;;11.38;4.63;;;20.30;73.20;;;;;;5044228;28;20013;-56
2023/10/07 08:53:23;;;;;;;10.23;4.88;;;20.20;73.80;;;;;;5043360;28;20044;-60
2023/10/07 08:56:00;;;;;;;9.30;4.40;;;20.20;74.60;;;;;;5025656;28;20024;-57
2023/10/07 08:58:31;;;;;;;12.15;4.10;;;20.20;74.00;;;;;;5026481;28;20132;-56
2023/10/07 09:00:58;;;;;;;18.40;4.32;;;20.20;74.10;;;;;;5045278;28;20029;-56
2023/10/07 09:03:28;;;;;;;8.68;4.00;;;20.20;74.00;;;;;;5050241;28;20033;-56
2023/10/07 09:05:59;;;;;;;;;;;20.20;74.50;;;;;;5041354;28;20472;-58
2023/10/07 09:08:25;;;;;;;10.25;3.70;;;20.20;74.70;;;;;;5026729;28;19978;-57
2023/10/07 09:10:52;;;;;;;23.92;4.10;;;20.20;74.70;;;;;;5044167;28;20021;-54
2023/10/07 09:13:27;;;;;;;21.35;4.88;;;20.30;74.60;;;;;;5043199;28;20030;-59
2023/10/07 09:15:55;;;;;;;13.68;4.03;;;20.30;74.80;;;;;;5046106;28;20022;-54
2023/10/07 09:18:31;;;;;;;9.70;3.65;;;20.30;74.60;;;;;;5031826;28;20551;-56
2023/10/07 09:20:58;;;;;;;14.15;4.25;;;20.30;74.20;;;;;;5041678;28;20105;-56
2023/10/07 09:23:33;;;;;;;13.25;4.13;;;20.20;74.30;;;;;;5026473;28;20025;-59
2023/10/07 09:26:16;;;;;;;15.50;3.55;;;20.20;74.20;;;;;;5044048;28;20025;-57
2023/10/07 09:28:46;;;;;;;10.60;3.30;;;20.30;74.30;;;;;;5038914;28;20551;-59
2023/10/07 09:31:15;;;;;;;14.50;3.72;;;20.30;74.20;;;;;;5044876;28;20040;-59
2023/10/07 09:33:42;;;;;;;9.83;3.37;;;20.30;74.20;;;;;;5047939;28;20021;-59
2023/10/07 09:41:44;;;;;;;13.32;3.53;;;20.30;74.10;;;;;;4983842;28;20119;-61
2023/10/07 09:44:27;;;;;;;13.15;3.42;;;20.20;74.10;;;;;;5044070;28;20100;-56
2023/10/07 09:46:53;;;;;;;8.90;3.50;;;20.20;74.10;;;;;;5037238;28;20065;-57
2023/10/07 09:49:20;;;;;;;9.55;3.58;;;20.20;74.10;;;;;;5043153;28;20037;-51
2023/10/07 09:51:50;;;;;;;10.15;3.42;;;20.20;74.00;;;;;;5043432;28;20031;-59
2023/10/07 09:54:47;;;;;;;15.48;3.70;;;20.20;73.90;;;;;;5048053;28;20420;-57
2023/10/07 09:57:42;;;;;;;12.70;3.28;;;20.10;74.10;;;;;;5036990;28;20037;-55
2023/10/07 10:03:42;;;;;;;11.50;3.40;;;20.10;73.90;;;;;;5034115;28;20108;-59
2023/10/07 10:06:33;;;;;;;9.63;3.10;;;20.10;74.00;;;;;;5044355;28;20091;-57
2023/10/07 10:09:09;;;;;;;10.10;3.50;;;20.10;74.10;;;;;;5042115;28;20028;-57
2023/10/07 10:16:45;;;;;;;9.55;3.42;;;20.20;74.10;;;;;;5040684;28;19955;-55
2023/10/07 10:19:22;;;;;;;8.00;3.10;;;20.20;73.80;;;;;;5041400;28;20057;-51
2023/10/07 10:21:50;;;;;;;10.85;3.22;;;20.20;74.00;;;;;;5044117;28;20068;-61
2023/10/07 10:24:16;;;;;;;8.85;3.33;;;20.20;73.70;;;;;;5047421;28;20017;-55
2023/10/07 10:26:44;;;;;;;21.50;3.53;;;20.20;73.80;;;;;;5040488;28;20063;-58
2023/10/07 10:29:25;;;;;;;23.90;4.22;;;20.10;73.90;;;;;;5031405;28;20083;-60
2023/10/07 10:31:58;;;;;;;11.20;3.60;;;20.20;74.50;;;;;;5045058;28;20480;-60
2023/10/07 10:34:26;;;;;;;18.98;4.25;;;20.20;74.20;;;;;;5045027;28;20029;-60
2023/10/07 10:36:56;;;;;;;16.52;4.32;;;20.10;74.20;;;;;;5045041;28;20060;-51
2023/10/07 10:39:31;;;;;;;18.95;4.88;;;20.10;74.00;;;;;;5047631;28;20036;-55
2023/10/07 10:42:02;;;;;;;17.52;4.82;;;20.10;74.00;;;;;;5043289;28;20033;-58
2023/10/07 10:44:36;;;;;;;11.18;4.72;;;20.00;74.00;;;;;;5048739;28;20033;-53
2023/10/07 10:47:02;;;;;;;18.65;5.20;;;20.00;74.10;;;;;;5044093;28;20025;-56
2023/10/07 10:49:30;;;;;;;15.70;6.00;;;20.00;74.10;;;;;;5048909;28;20033;-55
2023/10/07 10:51:59;;;;;;;15.82;5.57;;;19.90;74.30;;;;;;5027586;28;20060;-54
2023/10/07 10:54:25;;;;;;;14.82;6.35;;;19.90;74.10;;;;;;5045013;28;20045;-59
2023/10/07 10:56:55;;;;;;;11.15;5.35;;;19.90;74.20;;;;;;5028167;28;20025;-56
2023/10/07 10:59:35;;;;;;;13.45;5.53;;;19.90;74.30;;;;;;5041046;28;20105;-55
2023/10/07 11:02:01;;;;;;;10.85;5.32;;;19.90;74.70;;;;;;5026673;28;20026;-52
2023/10/07 11:04:29;;;;;;;11.85;5.85;;;19.90;74.80;;;;;;5048190;28;20036;-53
2023/10/07 11:06:55;;;;;;;18.38;5.80;;;19.80;74.90;;;;;;5045628;28;20029;-61
2023/10/07 11:09:35;;;;;;;13.55;5.70;;;19.90;74.90;;;;;;5047205;28;20083;-60
2023/10/07 11:12:09;;;;;;;11.07;5.75;;;19.90;75.00;;;;;;5045029;28;20018;-53
2023/10/07 11:14:41;;;;;;;10.98;6.00;;;19.90;74.90;;;;;;5041315;28;20021;-54
2023/10/07 11:17:09;;;;;;;12.55;6.00;;;19.90;74.90;;;;;;5045132;28;20033;-55
2023/10/07 11:19:46;;;;;;;11.15;5.80;;;19.90;75.10;;;;;;5044898;28;20029;-54
2023/10/07 11:22:19;;;;;;;16.65;6.90;;;19.90;75.00;;;;;;5027941;28;20489;-55
2023/10/07 11:24:48;;;;;;;15.75;5.60;;;19.90;76.00;;;;;;5027929;28;20452;-54
2023/10/07 11:27:15;;;;;;;12.45;5.75;;;19.90;75.30;;;;;;5030151;28;20028;-59
2023/10/07 11:29:42;;;;;;;13.30;6.45;;;19.90;75.20;;;;;;5010084;28;20029;-53
2023/10/07 11:32:08;;;;;;;12.70;6.60;;;19.90;75.60;;;;;;5011861;28;20041;-58
2023/10/07 11:34:39;;;;;;;12.50;6.28;;;19.90;75.50;;;;;;5029383;28;20111;-60
2023/10/07 11:37:09;;;;;;;11.48;7.05;;;20.00;75.20;;;;;;5029224;28;20083;-56
2023/10/07 11:39:47;;;;;;;;;;;20.00;75.30;;;;;;5029966;28;20033;-58
2023/10/07 11:42:21;;;;;;;13.20;6.72;;;19.90;75.00;;;;;;5011919;28;20415;-54
2023/10/07 11:44:53;;;;;;;13.65;6.68;;;19.90;75.30;;;;;;5027817;28;20057;-56
2023/10/07 11:47:19;;;;;;;13.38;6.78;;;19.90;75.20;;;;;;5029931;28;20072;-56
2023/10/07 11:49:46;;;;;;;14.10;7.50;;;19.90;75.50;;;;;;5028999;28;20109;-57
2023/10/07 11:52:13;;;;;;;14.57;7.10;;;19.90;75.80;;;;;;5029626;28;20036;-57
2023/10/07 11:54:39;;;;;;;12.55;7.00;;;19.90;75.80;;;;;;5031105;28;20104;-55
2023/10/07 11:57:06;;;;;;;15.10;6.70;;;19.90;75.60;;;;;;5018601;28;20475;-56
2023/10/07 11:59:35;;;;;;;16.65;7.93;;;19.90;75.90;;;;;;5028825;28;20073;-56
2023/10/07 12:02:09;;;;;;;15.23;7.88;;;19.90;76.90;;;;;;5028146;28;20309;-58
2023/10/07 12:04:41;;;;;;;15.90;8.95;;;19.90;76.80;;;;;;5031927;28;20057;-54
2023/10/07 12:07:08;;;;;;;17.35;8.68;;;20.00;77.10;;;;;;5038950;28;20021;-55
2023/10/07 12:09:35;;;;;;;15.70;8.48;;;20.00;78.40;;;;;;5026688;28;20078;-56
2023/10/07 12:12:02;;;;;;;15.07;8.23;;;20.00;77.50;;;;;;5011408;28;20501;-54
2023/10/07 12:14:33;;;;;;;13.50;7.40;;;19.90;77.40;;;;;;5030102;28;20028;-60
2023/10/07 12:16:59;;;;;;;16.50;7.72;;;19.90;77.60;;;;;;5029197;28;20045;-54
2023/10/07 12:19:25;;;;;;;12.23;7.00;;;19.90;77.30;;;;;;5029899;28;20025;-55
2023/10/07 12:21:52;;;;;;;16.60;8.00;;;19.90;77.10;;;;;;5031890;28;20080;-59
2023/10/07 12:24:19;;;;;;;13.65;7.38;;;19.90;77.80;;;;;;5035968;28;20025;-59
2023/10/07 12:26:51;;;;;;;18.23;7.30;;;19.90;77.00;;;;;;5030034;28;20140;-60
2023/10/07 12:29:18;;;;;;;22.48;8.13;;;19.90;77.30;;;;;;5034975;28;20029;-59
2023/10/07 12:31:47;;;;;;;13.95;7.05;;;19.90;76.80;;;;;;5036757;28;20025;-53
2023/10/07 12:34:16;;;;;;;14.52;7.88;;;19.90;76.80;;;;;;5029961;28;20476;-57
2023/10/07 12:36:47;;;;;;;13.50;7.18;;;19.90;78.00;;;;;;5015965;28;20074;-57
2023/10/07 12:39:17;;;;;;;14.68;7.47;;;19.90;77.10;;;;;;5034520;28;20030;-53
2023/10/07 12:41:43;;;;;;;15.63;7.35;;;19.90;77.10;;;;;;5012419;28;20072;-53
2023/10/07 12:44:10;;;;;;;14.73;8.10;;;19.90;77.10;;;;;;5033867;28;20519;-55
2023/10/07 12:46:40;;;;;;;15.30;7.20;;;19.90;76.70;;;;;;5034840;28;20029;-53
2023/10/07 12:49:10;;;;;;;14.75;7.60;;;19.90;77.00;;;;;;5033170;28;20029;-53
2023/10/07 12:51:41;;;;;;;11.15;7.10;;;19.90;76.80;;;;;;5034560;28;20037;-54
2023/10/07 12:54:11;;;;;;;12.23;7.90;;;19.90;76.70;;;;;;5032649;28;20025;-58
2023/10/07 12:56:46;;;;;;;17.42;7.80;;;19.90;76.90;;;;;;5031965;28;20104;-53
2023/10/07 12:59:18;;;;;;;14.43;8.38;;;19.90;76.70;;;;;;5034279;28;20095;-58
2023/10/07 13:01:51;;;;;;;21.00;7.45;;;19.80;76.70;;;;;;5033383;28;20037;-58
2023/10/07 13:04:25;;;;;;;13.40;7.53;;;19.80;76.70;;;;;;5030654;28;20044;-57
2023/10/07 13:06:57;;;;;;;13.50;8.13;;;19.80;76.70;;;;;;5034729;28;20104;-59
2023/10/07 13:09:23;;;;;;;14.07;7.95;;;19.90;76.70;;;;;;5031863;28;20025;-56
2023/10/07 13:11:49;;;;;;;13.50;7.65;;;19.90;76.60;;;;;;5032243;28;20032;-58
2023/10/07 13:14:15;;;;;;;14.10;7.63;;;19.90;76.60;;;;;;5034536;28;20107;-59
2023/10/07 13:16:45;;;;;;;13.88;7.50;;;19.90;76.50;;;;;;5015343;28;20404;-58
2023/10/07 13:19:11;;;;;;;14.07;7.30;;;19.90;76.50;;;;;;5032353;28;20068;-55
2023/10/07 13:21:37;;;;;;;16.75;7.78;;;19.90;76.20;;;;;;5032837;28;20547;-55
2023/10/07 13:24:07;;;;;;;16.58;7.60;;;19.80;76.10;;;;;;5014248;28;20021;-57
2023/10/07 13:26:34;;;;;;;17.65;7.70;;;19.90;76.10;;;;;;5032917;28;20037;-55
2023/10/07 13:29:03;;;;;;;14.07;7.60;;;19.90;76.10;;;;;;5032277;28;20378;-57
2023/10/07 13:31:29;;;;;;;12.52;7.22;;;19.90;76.10;;;;;;4999129;28;20044;-59
2023/10/07 13:33:55;;;;;;;15.13;7.43;;;19.90;76.20;;;;;;5031388;28;20091;-56
2023/10/07 13:36:21;;;;;;;17.33;7.20;;;19.90;76.10;;;;;;5035414;28;20068;-54
2023/10/07 13:38:47;;;;;;;11.20;6.13;;;19.90;76.00;;;;;;5031452;28;20505;-54
2023/10/07 13:41:17;;;;;;;12.77;6.82;;;19.90;75.80;;;;;;5029109;28;20060;-54
2023/10/07 13:43:42;;;;;;;;;;;20.00;75.90;;;;;;5030964;28;20060;-57
2023/10/07 13:46:12;;;;;;;13.68;7.13;;;20.00;75.50;;;;;;5013051;28;20361;-55
2023/10/07 13:48:38;;;;;;;12.30;6.55;;;20.00;75.50;;;;;;5032885;28;20036;-53
2023/10/07 13:51:06;;;;;;;9.60;6.22;;;20.10;75.50;;;;;;5032068;28;20381;-49
2023/10/07 13:56:49;;;;;;;11.85;6.57;;;20.10;75.40;;;;;;4954023;28;20059;-57
2023/10/07 13:59:16;;;;;;;10.23;5.93;;;20.10;75.60;;;;;;4950217;28;20106;-55
2023/10/07 14:01:46;;;;;;;14.07;5.97;;;20.20;75.30;;;;;;4952519;28;20035;-59